Time;durP1;ratioP1;P1;durP2;ratioP2;P2;SDS_P1;SDS_P2;PMS_P1;PMS_P2;Temp;Humidity;BMP_temperature;BMP_pressure;BME280_temperature;BME280_humidity;BME280_pressure;Samples;Min_cycle;Max_cycle;Signal;HPM_P1;HPM_P2
2022/04/28 00:00:47;;;;;;;3.85;1.98;;;;;;;16.40;49.43;94881.47;4966929;28;20310;-65
2022/04/28 00:03:14;;;;;;;5.95;2.60;;;;;;;16.36;49.19;94874.91;4968779;28;20278;-66
2022/04/28 00:05:40;;;;;;;4.30;1.90;;;;;;;16.46;49.39;94881.53;4981169;28;20230;-65
2022/04/28 00:08:07;;;;;;;3.03;2.20;;;;;;;16.52;49.08;94878.13;4985882;28;20271;-65
2022/04/28 00:10:34;;;;;;;4.05;2.17;;;;;;;16.54;48.84;94878.75;4970549;28;20808;-64
2022/04/28 00:13:00;;;;;;;4.38;1.95;;;;;;;16.52;48.98;94885.28;4977437;28;20227;-65
2022/04/28 00:15:27;;;;;;;3.83;2.38;;;;;;;16.47;49.20;94883.19;4968804;28;20203;-65
2022/04/28 00:17:53;;;;;;;3.67;2.13;;;;;;;16.51;49.04;94883.59;4963892;28;20212;-65
2022/04/28 00:20:18;;;;;;;5.60;2.60;;;;;;;16.44;48.88;94890.69;4968560;28;20221;-65
2022/04/28 00:22:44;;;;;;;2.88;2.13;;;;;;;16.45;48.73;94884.38;4969438;28;20258;-65
2022/04/28 00:25:10;;;;;;;3.30;2.10;;;;;;;16.30;49.10;94884.44;4951906;28;20318;-65
2022/04/28 00:27:35;;;;;;;3.90;2.10;;;;;;;16.20;49.15;94874.16;4960940;28;20207;-65
2022/04/28 00:30:01;;;;;;;4.07;2.03;;;;;;;16.28;49.22;94889.94;4961857;28;20209;-65
2022/04/28 00:32:27;;;;;;;5.82;2.60;;;;;;;16.26;48.72;94891.16;4966290;28;20279;-65
2022/04/28 00:34:53;;;;;;;3.92;2.17;;;;;;;16.24;49.09;94893.16;4963228;28;20314;-64
2022/04/28 00:37:19;;;;;;;2.75;2.00;;;;;;;16.25;48.73;94897.44;4966175;28;20291;-65
2022/04/28 00:39:44;;;;;;;5.03;2.28;;;;;;;16.18;48.76;94900.06;4970376;28;20228;-66
2022/04/28 00:42:14;;;;;;;3.80;2.15;;;;;;;16.22;48.56;94896.00;4969954;28;20211;-65
2022/04/28 00:44:41;;;;;;;4.28;2.15;;;;;;;16.15;48.63;94892.47;4974890;28;20230;-65
2022/04/28 00:47:08;;;;;;;4.85;2.13;;;;;;;16.22;48.66;94896.00;4978249;28;20224;-64
2022/04/28 00:52:19;;;;;;;3.30;2.05;;;;;;;16.19;48.73;94901.69;4963732;28;20231;-65
2022/04/28 00:54:45;;;;;;;3.30;2.00;;;;;;;16.21;48.52;94906.81;4968406;28;20216;-65
2022/04/28 00:57:12;;;;;;;4.53;2.25;;;;;;;16.25;48.29;94900.09;4972200;28;20217;-64
2022/04/28 00:59:39;;;;;;;5.22;2.20;;;;;;;16.30;48.53;94906.50;4973059;28;20327;-65
2022/04/28 01:02:10;;;;;;;5.28;1.98;;;;;;;16.32;48.16;94909.78;4969862;28;20288;-64
2022/04/28 01:04:36;;;;;;;4.68;2.20;;;;;;;16.28;48.62;94905.06;4977472;28;20246;-64
2022/04/28 01:07:01;;;;;;;3.90;2.03;;;;;;;16.28;48.69;94908.53;4953162;28;20225;-64
2022/04/28 01:09:27;;;;;;;3.33;2.25;;;;;;;16.27;48.86;94906.06;4940670;28;20221;-64
2022/04/28 01:11:53;;;;;;;3.25;2.00;;;;;;;16.21;48.97;94904.16;4961500;28;20299;-64
2022/04/28 01:14:18;;;;;;;5.50;2.33;;;;;;;16.16;49.00;94912.69;4969266;28;20220;-65
2022/04/28 01:16:43;;;;;;;7.10;2.35;;;;;;;16.16;49.16;94914.50;4972064;28;20224;-65
2022/04/28 01:19:09;;;;;;;5.75;2.50;;;;;;;16.10;49.44;94916.09;4961237;28;20240;-64
2022/04/28 01:21:35;;;;;;;7.25;2.17;;;;;;;16.08;49.57;94910.16;4968164;28;20219;-65
2022/04/28 01:24:02;;;;;;;4.13;2.30;;;;;;;16.04;49.80;94914.19;4964963;28;20201;-64
2022/04/28 01:26:28;;;;;;;3.28;2.30;;;;;;;15.96;49.96;94915.13;4967582;28;20228;-64
2022/04/28 01:28:53;;;;;;;4.72;2.30;;;;;;;15.84;50.46;94916.63;4979565;28;20231;-64
2022/04/28 01:31:19;;;;;;;4.90;2.60;;;;;;;15.79;50.74;94922.47;4991592;28;20245;-64
2022/04/28 01:33:44;;;;;;;2.90;1.98;;;;;;;15.75;50.20;94917.75;4969003;28;20252;-64
2022/04/28 01:36:10;;;;;;;5.25;2.72;;;;;;;15.63;50.82;94920.00;4975518;28;20219;-64
2022/04/28 01:38:35;;;;;;;6.70;3.40;;;;;;;15.61;51.87;94914.91;4964282;28;20252;-64
2022/04/28 01:41:01;;;;;;;6.50;2.80;;;;;;;15.77;51.78;94929.81;4969348;28;20228;-63
2022/04/28 01:43:26;;;;;;;5.05;3.05;;;;;;;15.66;52.22;94925.78;4960739;28;20219;-64
2022/04/28 01:45:52;;;;;;;4.93;2.92;;;;;;;15.51;53.03;94934.75;4966564;28;20230;-64
2022/04/28 01:48:17;;;;;;;4.28;3.25;;;;;;;15.38;54.02;94925.59;4980699;28;20209;-64
2022/04/28 01:54:57;;;;;;;6.22;3.70;;;;;;;15.36;54.25;94922.31;4971752;28;20223;-64
2022/04/28 01:56:23;;;;;;;7.72;3.58;;;;;;;15.32;54.93;94930.84;4965360;28;20449;-64
2022/04/28 01:58:48;;;;;;;6.13;4.22;;;;;;;15.34;54.88;94937.59;4964897;28;20227;-65
2022/04/28 02:01:14;;;;;;;4.88;3.78;;;;;;;15.32;55.20;94941.44;4961822;28;20224;-65
2022/04/28 02:03:39;;;;;;;6.70;4.00;;;;;;;15.39;55.35;94943.13;4968345;28;20227;-64
2022/04/28 02:06:05;;;;;;;7.40;4.15;;;;;;;15.29;55.79;94944.41;4974996;28;20203;-64
2022/04/28 02:08:30;;;;;;;5.10;4.00;;;;;;;15.25;55.76;94936.03;4961131;28;20239;-64
2022/04/28 02:10:56;;;;;;;7.47;4.00;;;;;;;15.29;55.71;94942.63;4958613;28;20240;-64
2022/04/28 02:13:21;;;;;;;6.15;4.03;;;;;;;15.19;56.21;94947.34;4953030;28;20452;-64
2022/04/28 02:15:47;;;;;;;5.95;3.88;;;;;;;15.34;55.99;94948.19;4950376;28;20250;-65
2022/04/28 02:18:12;;;;;;;7.30;4.30;;;;;;;15.35;55.58;94947.16;4954312;28;20204;-65
2022/04/28 02:20:38;;;;;;;3.97;3.40;;;;;;;15.34;55.58;94942.88;4967002;28;20359;-65
2022/04/28 02:23:03;;;;;;;5.75;4.18;;;;;;;15.30;55.95;94941.59;4949455;28;20245;-65
2022/04/28 02:25:32;;;;;;;8.43;4.07;;;;;;;15.34;55.72;94944.69;4952879;28;20269;-64
2022/04/28 02:27:57;;;;;;;5.60;4.18;;;;;;;15.26;55.96;94952.72;4955553;28;20227;-64
2022/04/28 02:30:23;;;;;;;6.65;4.70;;;;;;;15.17;56.37;94950.16;4952136;28;20211;-64
2022/04/28 02:35:32;;;;;;;6.25;4.40;;;;;;;15.26;56.20;94958.84;4959985;28;20234;-64
2022/04/28 02:37:58;;;;;;;7.90;4.45;;;;;;;15.25;56.11;94954.56;4963703;28;20228;-65
2022/04/28 02:40:23;;;;;;;5.55;4.15;;;;;;;15.12;56.39;94949.06;4973911;28;20227;-64
2022/04/28 02:42:49;;;;;;;5.82;4.05;;;;;;;15.08;56.60;94950.47;4967965;28;20268;-64
2022/04/28 02:45:14;;;;;;;6.80;4.20;;;;;;;15.13;56.46;94956.00;4968214;28;20197;-65
2022/04/28 02:47:40;;;;;;;8.63;4.20;;;;;;;15.12;56.58;94957.03;4968717;28;20270;-65
2022/04/28 02:50:11;;;;;;;4.57;4.15;;;;;;;14.97;57.09;94955.19;4967275;28;20259;-64
2022/04/28 02:52:37;;;;;;;4.47;4.05;;;;;;;14.96;57.30;94958.81;4979515;28;20225;-65
2022/04/28 02:55:03;;;;;;;5.95;3.85;;;;;;;15.12;56.66;94962.31;4963701;28;20227;-65
2022/04/28 02:57:28;;;;;;;6.43;4.18;;;;;;;15.16;56.34;94967.06;4968843;28;20201;-67
2022/04/28 02:59:53;;;;;;;6.75;3.95;;;;;;;15.10;56.64;94959.88;4976428;28;20252;-67
2022/04/28 03:02:19;;;;;;;4.20;3.70;;;;;;;15.16;56.45;94966.25;4974733;28;20259;-68
2022/04/28 03:04:44;;;;;;;6.05;4.13;;;;;;;15.16;56.54;94966.25;4972381;28;20278;-66
2022/04/28 03:12:38;;;;;;;8.13;4.43;;;;;;;15.12;57.12;94972.91;4959226;28;20226;-66
2022/04/28 03:15:05;;;;;;;4.30;3.63;;;;;;;15.06;57.20;94968.34;4968159;28;20212;-69
2022/04/28 03:17:31;;;;;;;5.47;3.90;;;;;;;15.09;57.22;94973.28;4978771;28;20221;-65
2022/04/28 03:19:56;;;;;;;7.18;3.90;;;;;;;15.07;57.20;94978.75;4958398;28;20228;-65
2022/04/28 03:22:22;;;;;;;4.25;3.42;;;;;;;15.10;56.99;94985.50;4960272;28;20330;-65
2022/04/28 03:24:48;;;;;;;5.85;3.83;;;;;;;15.06;57.43;94984.22;4962403;28;20311;-60
2022/04/28 03:27:13;;;;;;;6.28;3.60;;;;;;;15.00;57.57;94989.25;4947235;28;20292;-67
2022/04/28 03:29:38;;;;;;;8.52;3.85;;;;;;;15.04;57.50;94994.19;4966836;28;20254;-67
2022/04/28 03:32:05;;;;;;;5.40;3.63;;;;;;;15.12;57.32;94999.38;4985916;28;20246;-68
2022/04/28 03:34:31;;;;;;;4.53;3.55;;;;;;;15.13;57.18;95001.03;4989921;28;20213;-68
2022/04/28 03:36:56;;;;;;;5.32;3.75;;;;;;;15.18;57.15;95009.25;4985643;28;20235;-67
2022/04/28 03:39:22;;;;;;;4.00;3.70;;;;;;;15.20;56.95;95012.56;4975019;28;20215;-69
2022/04/28 03:41:47;;;;;;;5.32;3.95;;;;;;;15.12;56.84;95023.22;4973359;28;20216;-68
2022/04/28 03:44:13;;;;;;;4.30;3.90;;;;;;;15.08;57.18;95014.81;4978097;28;20209;-67
2022/04/28 03:46:39;;;;;;;5.65;4.03;;;;;;;15.02;57.58;95028.75;4990700;28;20224;-69
2022/04/28 03:49:04;;;;;;;5.47;4.50;;;;;;;14.91;58.19;95027.38;4969871;28;20223;-65
2022/04/28 03:51:29;;;;;;;5.70;4.40;;;;;;;14.94;58.18;95021.75;4965654;28;20195;-64
2022/04/28 03:54:00;;;;;;;5.68;4.93;;;;;;;14.91;58.31;95030.00;4977492;28;20219;-64
2022/04/28 03:56:32;;;;;;;5.40;4.90;;;;;;;14.80;58.84;95034.91;4970142;28;20223;-64
2022/04/28 03:59:02;;;;;;;6.60;5.22;;;;;;;14.85;58.84;95035.22;4965808;28;20307;-64
2022/04/28 04:01:28;;;;;;;6.85;6.18;;;;;;;14.87;58.91;95036.69;4965793;28;20232;-66
2022/04/28 04:03:54;;;;;;;7.20;6.05;;;;;;;14.88;58.84;95038.31;4977315;28;20311;-67
2022/04/28 04:06:19;;;;;;;8.55;6.03;;;;;;;14.85;59.13;95037.84;4982018;28;20278;-65
2022/04/28 04:08:45;;;;;;;6.57;5.97;;;;;;;14.85;59.35;95036.03;4984613;28;20211;-64
2022/04/28 04:11:12;;;;;;;6.97;6.35;;;;;;;14.85;59.50;95036.03;4962465;28;20222;-64
2022/04/28 04:13:38;;;;;;;8.00;6.97;;;;;;;14.84;59.36;95037.03;4960195;28;20231;-64
2022/04/28 04:16:04;;;;;;;7.32;6.78;;;;;;;14.77;59.76;95046.69;4974844;28;20223;-67
2022/04/28 04:18:30;;;;;;;8.43;7.35;;;;;;;14.74;59.65;95041.75;4974543;28;20191;-68
2022/04/28 04:20:55;;;;;;;7.68;6.90;;;;;;;14.68;60.21;95045.09;4965235;28;20223;-67
2022/04/28 04:23:21;;;;;;;7.78;7.07;;;;;;;14.69;60.08;95041.44;4988173;28;20275;-68
2022/04/28 04:25:46;;;;;;;9.93;6.90;;;;;;;14.75;60.07;95041.59;4985150;28;20220;-61
2022/04/28 04:28:12;;;;;;;7.82;7.03;;;;;;;14.70;60.04;95049.22;4965882;28;20244;-61
2022/04/28 04:33:22;;;;;;;7.70;7.10;;;;;;;14.59;60.65;95046.97;4962329;28;20238;-62
2022/04/28 04:35:47;;;;;;;7.43;6.78;;;;;;;14.54;60.73;95058.09;4958760;28;20212;-62
2022/04/28 04:38:12;;;;;;;7.35;6.75;;;;;;;14.52;60.91;95052.16;4958363;28;20480;-64
2022/04/28 04:40:38;;;;;;;7.53;6.90;;;;;;;14.58;60.77;95055.09;4963594;28;20216;-64
2022/04/28 04:43:05;;;;;;;10.15;7.13;;;;;;;14.55;60.43;95062.38;4957455;28;20253;-63
2022/04/28 04:45:31;;;;;;;6.78;6.18;;;;;;;14.38;61.30;95060.81;4944768;28;20204;-64
2022/04/28 04:47:57;;;;;;;7.07;6.38;;;;;;;14.33;61.54;95061.31;4948968;28;20232;-64
2022/04/28 04:50:22;;;;;;;6.57;5.88;;;;;;;14.50;61.00;95064.69;4970291;28;20227;-65
2022/04/28 04:52:48;;;;;;;7.63;5.65;;;;;;;14.51;60.80;95065.50;4975532;28;20273;-64
2022/04/28 04:55:13;;;;;;;7.18;5.22;;;;;;;14.43;60.39;95063.72;4968762;28;20224;-64
2022/04/28 04:57:39;;;;;;;4.50;4.10;;;;;;;14.19;60.79;95071.78;4974864;28;20290;-65
2022/04/28 05:00:06;;;;;;;4.70;4.07;;;;;;;14.03;61.06;95078.81;4973940;28;20226;-66
2022/04/28 05:02:31;;;;;;;3.15;2.95;;;;;;;14.00;60.58;95081.78;4954979;28;20782;-65
2022/04/28 05:04:57;;;;;;;3.28;3.00;;;;;;;14.02;60.52;95085.09;4967898;28;20238;-64
2022/04/28 05:07:22;;;;;;;6.35;2.72;;;;;;;14.00;60.12;95078.31;4968208;28;20224;-64
2022/04/28 05:09:48;;;;;;;2.70;2.45;;;;;;;13.79;60.46;95087.66;4975792;28;20224;-60
2022/04/28 05:12:13;;;;;;;2.20;2.05;;;;;;;13.74;60.17;95089.13;4961296;28;20264;-62
2022/04/28 05:14:39;;;;;;;3.47;2.00;;;;;;;13.70;59.88;95096.59;4961653;28;20255;-62
2022/04/28 05:17:04;;;;;;;2.25;1.90;;;;;;;13.34;61.39;95096.16;4969639;28;20306;-64
2022/04/28 05:19:30;;;;;;;3.00;1.90;;;;;;;13.55;60.66;95100.91;4966188;28;20235;-67
2022/04/28 05:21:55;;;;;;;2.53;1.85;;;;;;;13.45;60.64;95104.56;4962263;28;20228;-66
2022/04/28 05:24:22;;;;;;;3.35;1.60;;;;;;;13.43;60.64;95103.09;4966361;28;20254;-69
2022/04/28 05:26:47;;;;;;;2.42;1.95;;;;;;;13.31;60.97;95107.91;4963879;28;20255;-60
2022/04/28 05:29:13;;;;;;;1.77;1.67;;;;;;;13.29;61.00;95115.16;4966739;28;20215;-70
2022/04/28 05:31:38;;;;;;;1.88;1.75;;;;;;;13.40;60.36;95114.81;4960389;28;20243;-69
2022/04/28 05:34:04;;;;;;;2.33;1.95;;;;;;;13.06;61.25;95111.47;4964691;28;20212;-69
2022/04/28 05:36:30;;;;;;;1.33;1.23;;;;;;;13.15;60.93;95110.47;4965481;28;20214;-69
2022/04/28 05:39:00;;;;;;;1.42;1.33;;;;;;;13.29;60.56;95120.44;4981623;28;20259;-70
2022/04/28 05:41:26;;;;;;;1.70;1.38;;;;;;;13.12;60.95;95116.91;4979003;28;20248;-70
2022/04/28 05:46:37;;;;;;;2.25;1.30;;;;;;;13.14;60.95;95114.94;4967585;28;20243;-70
2022/04/28 05:49:05;;;;;;;2.80;1.30;;;;;;;13.21;60.79;95117.75;4972380;28;20229;-70
2022/04/28 05:51:31;;;;;;;3.00;1.17;;;;;;;13.12;60.88;95122.19;4966055;28;20189;-69
2022/04/28 05:53:57;;;;;;;2.55;1.38;;;;;;;13.10;61.01;95123.38;4972544;28;20200;-69
2022/04/28 05:56:22;;;;;;;2.67;1.20;;;;;;;13.18;60.83;95140.03;4970717;28;20224;-70
2022/04/28 05:58:48;;;;;;;1.60;1.13;;;;;;;13.13;61.49;95139.72;4962361;28;20227;-69
2022/04/28 06:01:13;;;;;;;1.95;1.40;;;;;;;13.19;61.57;95133.75;4951008;28;20232;-70
2022/04/28 06:03:41;;;;;;;1.65;1.40;;;;;;;13.20;61.68;95146.00;4965734;28;20224;-70
2022/04/28 06:06:07;;;;;;;2.40;1.67;;;;;;;12.96;62.45;95140.66;4959782;28;20207;-70
2022/04/28 06:08:32;;;;;;;1.45;1.35;;;;;;;12.92;62.93;95144.63;4957054;28;20243;-69
2022/04/28 06:10:58;;;;;;;2.70;1.50;;;;;;;13.06;62.90;95146.63;4956189;28;20212;-71
2022/04/28 06:13:26;;;;;;;4.00;1.20;;;;;;;13.08;62.80;95152.56;4983046;28;20221;-71
2022/04/28 06:15:51;;;;;;;2.20;1.30;;;;;;;12.80;63.64;95150.22;4963706;28;20227;-71
2022/04/28 06:18:19;;;;;;;2.47;1.35;;;;;;;12.82;64.33;95146.59;4979654;28;20214;-69
2022/04/28 06:20:45;;;;;;;1.85;1.20;;;;;;;12.80;64.51;95142.31;4965505;28;20227;-62
2022/04/28 06:23:11;;;;;;;2.35;1.55;;;;;;;12.74;64.75;95145.59;4952282;28;20238;-62
2022/04/28 06:25:37;;;;;;;1.65;1.55;;;;;;;12.56;65.63;95150.16;4957024;28;20233;-62
2022/04/28 06:28:03;;;;;;;1.35;1.23;;;;;;;12.68;65.62;95151.50;4941465;28;20378;-62
2022/04/28 06:30:29;;;;;;;1.55;1.45;;;;;;;12.84;65.94;95145.44;4959470;28;20228;-61
2022/04/28 06:32:54;;;;;;;1.40;1.30;;;;;;;12.81;65.34;95148.41;4948240;28;20244;-62
2022/04/28 06:35:20;;;;;;;1.50;1.40;;;;;;;12.50;66.10;95148.16;4942651;28;20233;-61
2022/04/28 06:37:45;;;;;;;1.60;1.50;;;;;;;12.61;66.07;95155.78;4947184;28;20270;-62
2022/04/28 06:40:12;;;;;;;1.75;1.40;;;;;;;12.66;65.75;95165.84;4946974;28;20241;-62
2022/04/28 06:42:42;;;;;;;1.63;1.52;;;;;;;12.59;65.81;95165.69;4936754;28;20232;-71
2022/04/28 06:45:08;;;;;;;1.55;1.45;;;;;;;12.55;66.46;95162.50;4959491;28;20208;-70
2022/04/28 06:47:34;;;;;;;1.42;1.33;;;;;;;12.44;66.96;95159.34;4975047;28;20292;-69
2022/04/28 06:50:00;;;;;;;1.38;1.20;;;;;;;12.58;66.13;95161.38;4960935;28;20224;-69
2022/04/28 06:52:25;;;;;;;2.63;1.25;;;;;;;12.50;66.21;95153.44;4970580;28;20223;-69
2022/04/28 06:54:50;;;;;;;1.83;1.20;;;;;;;12.60;66.12;95167.31;4975582;28;20322;-68
2022/04/28 06:57:16;;;;;;;3.55;1.55;;;;;;;12.67;66.08;95162.22;4965867;28;20274;-69
2022/04/28 06:59:41;;;;;;;1.40;1.30;;;;;;;12.53;66.25;95164.47;4980162;28;20225;-67
2022/04/28 07:02:08;;;;;;;2.10;1.13;;;;;;;12.51;66.03;95170.91;4967163;28;20218;-71
2022/04/28 07:04:35;;;;;;;1.40;1.30;;;;;;;12.55;66.19;95172.25;4971786;28;20322;-69
2022/04/28 07:07:00;;;;;;;3.80;1.40;;;;;;;12.45;66.97;95174.19;4978250;28;20232;-70
2022/04/28 07:09:31;;;;;;;3.63;1.25;;;;;;;12.54;67.04;95167.97;4965173;28;20207;-72
2022/04/28 07:11:57;;;;;;;1.30;1.20;;;;;;;12.74;66.52;95179.06;4968020;28;20288;-71
2022/04/28 07:14:22;;;;;;;1.75;1.02;;;;;;;12.71;66.17;95177.56;4971335;28;20279;-73
2022/04/28 07:16:48;;;;;;;2.78;1.63;;;;;;;12.72;66.41;95181.03;4973204;28;20312;-67
2022/04/28 07:19:13;;;;;;;2.10;1.45;;;;;;;12.74;65.23;95171.16;4972702;28;20223;-71
2022/04/28 07:21:39;;;;;;;1.83;1.30;;;;;;;12.77;66.05;95178.72;4973151;28;20240;-68
2022/04/28 07:24:04;;;;;;;4.10;1.58;;;;;;;12.93;65.45;95175.31;4975650;28;20208;-70
2022/04/28 07:26:30;;;;;;;1.73;1.40;;;;;;;12.85;65.33;95184.03;4972140;28;20220;-70
2022/04/28 07:28:55;;;;;;;1.27;1.10;;;;;;;12.76;65.04;95183.19;4965936;28;20232;-69
2022/04/28 07:31:21;;;;;;;4.47;1.23;;;;;;;12.86;65.02;95185.69;4979196;28;20229;-66
2022/04/28 07:33:47;;;;;;;2.55;1.40;;;;;;;12.68;65.16;95182.34;4975378;28;20232;-65
2022/04/28 07:36:12;;;;;;;3.22;1.38;;;;;;;12.87;64.45;95186.53;4969444;28;20215;-70
2022/04/28 07:38:39;;;;;;;1.92;1.40;;;;;;;12.93;64.33;95191.16;4981587;28;20219;-69
2022/04/28 07:41:04;;;;;;;1.50;1.40;;;;;;;13.03;64.07;95184.72;4982185;28;20228;-68
2022/04/28 07:43:30;;;;;;;3.30;1.40;;;;;;;12.96;63.60;95177.63;4984253;28;20228;-69
2022/04/28 07:45:55;;;;;;;1.58;1.48;;;;;;;12.99;63.44;95185.22;4976985;28;20226;-68
2022/04/28 07:48:21;;;;;;;1.15;1.13;;;;;;;13.04;62.86;95177.63;4966940;28;20239;-69
2022/04/28 07:50:47;;;;;;;5.65;2.03;;;;;;;12.98;63.16;95179.09;4974724;28;20204;-69
2022/04/28 07:53:13;;;;;;;1.38;1.27;;;;;;;13.20;62.61;95188.25;4968427;28;20228;-68
2022/04/28 07:55:38;;;;;;;1.75;1.58;;;;;;;13.32;62.45;95190.56;4972639;28;20229;-67
2022/04/28 07:58:04;;;;;;;4.63;1.70;;;;;;;13.17;62.11;95188.53;4962123;28;20235;-67
2022/04/28 08:00:29;;;;;;;1.30;1.20;;;;;;;13.16;62.12;95192.19;4973078;28;20245;-66
2022/04/28 08:02:55;;;;;;;1.73;1.17;;;;;;;13.11;62.49;95191.84;4980049;28;20219;-68
2022/04/28 08:05:20;;;;;;;2.13;1.42;;;;;;;13.15;62.21;95198.47;4968036;28;20287;-69
2022/04/28 08:07:46;;;;;;;7.43;1.73;;;;;;;13.36;61.94;95205.09;4960315;28;20323;-69
2022/04/28 08:10:12;;;;;;;3.75;1.83;;;;;;;13.44;61.73;95200.66;4969667;28;20299;-68
2022/04/28 08:12:38;;;;;;;3.47;1.75;;;;;;;13.45;60.90;95198.84;4973400;28;20244;-69
2022/04/28 08:15:05;;;;;;;4.50;1.70;;;;;;;13.46;60.90;95201.31;4974423;28;20287;-68
2022/04/28 08:17:30;;;;;;;5.13;1.85;;;;;;;13.58;60.71;95198.31;4959855;28;20218;-68
2022/04/28 08:19:55;;;;;;;4.22;2.10;;;;;;;13.66;60.23;95204.44;4946918;28;20232;-67
2022/04/28 08:22:21;;;;;;;1.83;1.67;;;;;;;13.47;60.50;95204.75;4947498;28;20233;-69
2022/04/28 08:24:47;;;;;;;4.55;2.67;;;;;;;13.55;60.48;95211.88;4948350;28;20236;-69
2022/04/28 08:27:12;;;;;;;3.10;2.17;;;;;;;13.44;60.71;95205.94;4949642;28;20220;-69
2022/04/28 08:29:37;;;;;;;2.25;2.00;;;;;;;13.50;60.36;95203.59;4969971;28;20216;-68
2022/04/28 08:32:04;;;;;;;2.75;2.17;;;;;;;13.57;60.50;95207.25;4979092;28;20261;-68
2022/04/28 08:34:29;;;;;;;3.50;2.30;;;;;;;13.49;60.46;95212.53;4958554;28;20240;-68
2022/04/28 08:36:55;;;;;;;4.00;2.13;;;;;;;13.53;60.42;95214.69;4966378;28;20231;-67
2022/04/28 08:39:21;;;;;;;3.17;1.98;;;;;;;13.74;59.78;95216.00;4965156;28;20218;-68
2022/04/28 08:41:49;;;;;;;2.25;1.92;;;;;;;13.65;59.87;95208.06;4981906;28;20251;-67
2022/04/28 08:44:20;;;;;;;4.03;1.88;;;;;;;13.67;60.08;95211.38;4965896;28;20228;-70
2022/04/28 08:46:53;;;;;;;4.20;2.30;;;;;;;13.66;60.02;95212.38;4979781;28;20233;-68
2022/04/28 08:49:22;;;;;;;3.65;2.25;;;;;;;13.54;60.69;95218.97;4968062;28;20228;-67
2022/04/28 08:51:50;;;;;;;3.65;2.40;;;;;;;13.60;60.42;95222.75;4977140;28;20245;-66
2022/04/28 08:54:16;;;;;;;3.30;2.80;;;;;;;13.64;60.35;95216.19;4971658;28;20310;-66
2022/04/28 08:56:41;;;;;;;3.05;2.45;;;;;;;13.74;60.16;95222.13;4962466;28;20312;-66
2022/04/28 08:59:07;;;;;;;4.88;2.65;;;;;;;13.72;60.24;95212.72;4975473;28;20271;-67
2022/04/28 09:01:33;;;;;;;5.68;3.25;;;;;;;13.86;60.24;95220.78;4983449;28;20841;-67
2022/04/28 09:04:02;;;;;;;6.85;2.97;;;;;;;14.06;59.04;95220.41;4965278;28;20216;-67
2022/04/28 09:06:38;;;;;;;4.82;2.63;;;;;;;13.97;59.22;95208.22;4981734;28;20213;-68
2022/04/28 09:09:10;;;;;;;3.42;2.72;;;;;;;13.99;59.22;95228.19;4972605;28;20208;-68
2022/04/28 09:11:41;;;;;;;3.83;2.30;;;;;;;14.00;59.21;95226.38;4979363;28;20226;-68
2022/04/28 09:14:09;;;;;;;4.85;2.80;;;;;;;14.08;58.99;95221.06;4976219;28;20288;-68
2022/04/28 09:17:03;;;;;;;3.67;2.40;;;;;;;14.12;58.50;95219.75;4965374;28;20239;-67
2022/04/28 09:19:37;;;;;;;4.35;2.35;;;;;;;14.04;58.78;95217.94;4964207;28;20224;-68
2022/04/28 09:22:13;;;;;;;5.47;2.42;;;;;;;14.15;58.90;95223.88;4974069;28;20253;-68
2022/04/28 09:24:43;;;;;;;4.20;2.38;;;;;;;14.36;58.20;95221.50;4981015;28;20230;-59
2022/04/28 09:27:09;;;;;;;3.88;2.28;;;;;;;14.48;57.81;95219.31;4970445;28;20271;-60
2022/04/28 09:29:44;;;;;;;3.58;2.42;;;;;;;14.66;57.43;95216.47;4958331;28;20232;-61
2022/04/28 09:32:11;;;;;;;4.72;2.10;;;;;;;14.63;57.03;95222.13;4973684;28;20240;-62
2022/04/28 09:34:46;;;;;;;3.38;2.58;;;;;;;14.62;56.97;95223.94;4980139;28;20243;-62
2022/04/28 09:37:18;;;;;;;2.92;2.50;;;;;;;14.53;57.03;95223.13;4965644;28;20233;-61
2022/04/28 09:42:39;;;;;;;4.70;2.33;;;;;;;14.73;56.51;95228.03;4970662;28;20336;-60
2022/04/28 09:45:05;;;;;;;2.90;2.63;;;;;;;14.77;55.83;95224.03;4970329;28;20204;-60
2022/04/28 09:47:32;;;;;;;4.93;3.13;;;;;;;14.86;56.15;95222.16;4952252;28;20232;-59
2022/04/28 09:49:58;;;;;;;4.82;3.17;;;;;;;14.69;56.29;95213.47;4970356;28;20227;-59
2022/04/28 09:52:26;;;;;;;4.75;3.00;;;;;;;14.80;55.83;95222.88;4967200;28;20231;-65
2022/04/28 09:54:54;;;;;;;3.70;2.58;;;;;;;14.79;55.47;95222.03;4974720;28;20234;-64
2022/04/28 09:57:20;;;;;;;2.65;2.45;;;;;;;14.89;55.54;95217.38;4970065;28;20212;-64
2022/04/28 09:59:47;;;;;;;4.43;2.50;;;;;;;14.87;55.50;95213.25;4977656;28;20207;-63
2022/04/28 10:02:17;;;;;;;3.08;2.20;;;;;;;14.86;55.38;95212.41;4970930;28;20242;-60
2022/04/28 10:04:42;;;;;;;4.57;2.65;;;;;;;14.96;55.18;95215.66;4955263;28;20225;-60
2022/04/28 10:07:09;;;;;;;5.68;2.50;;;;;;;15.11;55.34;95221.03;4947875;28;20228;-61
2022/04/28 10:09:36;;;;;;;4.68;2.50;;;;;;;15.09;54.51;95214.28;4970089;28;20220;-61
2022/04/28 10:12:03;;;;;;;6.85;2.88;;;;;;;15.10;54.50;95218.56;4974638;28;20777;-60
2022/04/28 10:14:31;;;;;;;6.93;2.53;;;;;;;15.10;54.57;95208.81;4967305;28;20215;-60
2022/04/28 10:16:57;;;;;;;4.80;3.70;;;;;;;15.26;54.12;95213.16;4978204;28;20226;-61
2022/04/28 10:19:27;;;;;;;7.57;2.97;;;;;;;15.25;54.65;95208.88;4958438;28;20221;-60
2022/04/28 10:22:07;;;;;;;4.15;2.60;;;;;;;15.30;53.05;95208.34;4943253;28;20228;-60
2022/04/28 10:33:00;;;;;;;5.57;2.70;;;;;;;15.25;53.26;95208.88;4965469;28;20266;-59
2022/04/28 10:35:41;;;;;;;3.15;2.35;;;;;;;15.17;53.22;95208.91;4964572;28;20231;-63
2022/04/28 10:38:19;;;;;;;6.82;2.80;;;;;;;15.17;53.22;95199.16;4979648;28;20283;-64
2022/04/28 10:40:58;;;;;;;4.28;2.83;;;;;;;15.19;53.14;95197.16;4958769;28;20223;-64
2022/04/28 10:43:31;;;;;;;5.80;2.92;;;;;;;14.98;53.86;95199.59;4977926;28;20231;-63
2022/04/28 10:45:57;;;;;;;4.70;2.45;;;;;;;15.16;53.32;95202.00;4981000;28;20234;-63
2022/04/28 10:48:33;;;;;;;3.75;3.28;;;;;;;15.26;53.31;95197.25;4968425;28;20206;-63
2022/04/28 10:51:16;;;;;;;5.13;3.00;;;;;;;15.42;53.22;95202.47;4976694;28;20203;-65
2022/04/28 10:54:03;;;;;;;5.43;2.65;;;;;;;15.59;52.30;95205.00;4974654;28;20277;-66
2022/04/28 10:56:52;;;;;;;3.00;2.70;;;;;;;15.71;51.19;95211.53;4988141;28;20248;-64
2022/04/28 10:59:34;;;;;;;5.40;2.65;;;;;;;15.58;52.03;95203.31;4897711;29;20233;-64
2022/04/28 11:02:13;;;;;;;6.28;2.83;;;;;;;15.67;51.72;95202.28;4913867;29;20229;-65
2022/04/28 11:04:40;;;;;;;5.70;2.92;;;;;;;15.60;51.98;95199.50;4899325;29;20237;-64
2022/04/28 11:07:08;;;;;;;4.65;2.95;;;;;;;15.49;52.10;95199.91;4900204;29;20420;-64
2022/04/28 11:09:49;;;;;;;4.47;3.03;;;;;;;15.44;52.53;95197.78;4917367;29;20218;-64
2022/04/28 11:12:18;;;;;;;3.78;3.03;;;;;;;15.55;51.75;95201.84;4917156;29;20206;-64
2022/04/28 11:14:44;;;;;;;4.40;2.97;;;;;;;15.81;51.00;95190.91;4923941;29;20222;-61
2022/04/28 11:17:11;;;;;;;3.92;3.03;;;;;;;15.63;51.37;95193.00;4923361;29;20232;-63
2022/04/28 11:19:36;;;;;;;6.95;3.78;;;;;;;15.76;51.40;95198.56;4899445;29;20234;-63
2022/04/28 11:22:02;;;;;;;4.95;3.45;;;;;;;15.67;51.27;95194.31;4914738;29;20252;-61
2022/04/28 11:24:28;;;;;;;5.68;3.05;;;;;;;15.78;51.61;95196.56;4918654;29;20222;-60
2022/04/28 11:26:55;;;;;;;5.55;3.50;;;;;;;15.61;51.78;95192.34;4924013;29;20269;-59
2022/04/28 11:29:22;;;;;;;6.90;3.85;;;;;;;15.75;51.55;95185.50;4903774;29;20654;-60
2022/04/28 11:31:49;;;;;;;3.83;3.47;;;;;;;15.94;51.01;95197.44;4913549;29;20250;-60
2022/04/28 11:34:15;;;;;;;7.47;4.28;;;;;;;15.86;51.09;95190.38;4913161;29;20253;-60
2022/04/28 11:36:41;;;;;;;5.63;3.83;;;;;;;15.73;51.29;95198.94;4935520;28;20282;-60
2022/04/28 11:39:10;;;;;;;6.75;3.85;;;;;;;15.75;51.61;95193.47;4961086;28;20302;-60
2022/04/28 11:41:40;;;;;;;7.35;4.35;;;;;;;15.65;51.94;95193.66;4971674;28;20270;-61
2022/04/28 11:44:10;;;;;;;4.85;3.58;;;;;;;15.71;51.71;95197.47;4974015;28;20248;-61
2022/04/28 11:46:56;;;;;;;8.02;4.15;;;;;;;15.78;51.99;95187.78;4989859;28;20232;-61
2022/04/28 11:49:23;;;;;;;5.88;4.07;;;;;;;15.71;51.52;95185.03;4963371;28;20892;-62
2022/04/28 11:51:51;;;;;;;8.45;4.10;;;;;;;15.83;50.77;95188.91;4966655;28;20224;-62
2022/04/28 11:54:23;;;;;;;5.65;3.95;;;;;;;15.78;50.94;95193.91;4958294;28;20212;-63
2022/04/28 11:56:49;;;;;;;7.82;3.72;;;;;;;15.82;50.80;95187.25;4955845;28;20236;-62
2022/04/28 11:59:15;;;;;;;5.60;4.10;;;;;;;15.77;50.99;95178.19;4959116;28;20229;-62
2022/04/28 12:01:42;;;;;;;6.35;4.50;;;;;;;15.95;50.76;95177.84;4963213;28;20239;-62
2022/04/28 12:04:08;;;;;;;7.53;4.45;;;;;;;16.26;50.09;95177.69;4970004;28;20251;-64